createdAt,value
2023-01-18T00:00:48.316Z,4.47
2023-01-18T00:03:15.065Z,4.47
2023-01-18T00:05:41.796Z,4.46
2023-01-18T00:08:09.062Z,4.44
2023-01-18T00:10:35.781Z,4.44
2023-01-18T00:13:02.594Z,4.44
2023-01-18T00:15:29.338Z,4.42
2023-01-18T00:17:56.099Z,4.43
2023-01-18T00:20:23.500Z,4.43
2023-01-18T00:22:50.323Z,4.44
2023-01-18T00:25:17.237Z,4.44
2023-01-18T00:27:50.737Z,4.44
2023-01-18T00:30:18.280Z,4.43
2023-01-18T00:32:45.229Z,4.42
2023-01-18T00:35:13.214Z,4.43
2023-01-18T00:37:39.962Z,4.42
2023-01-18T00:40:06.967Z,4.42
2023-01-18T00:42:52.147Z,4.42
2023-01-18T00:45:18.984Z,4.42
2023-01-18T00:47:45.959Z,4.43
2023-01-18T00:50:12.683Z,4.42
2023-01-18T00:52:40.541Z,4.42
2023-01-18T00:55:07.683Z,4.42
2023-01-18T00:57:34.360Z,4.42
2023-01-18T01:00:01.118Z,4.42
2023-01-18T01:02:27.860Z,4.40
2023-01-18T01:05:13.496Z,4.41
2023-01-18T01:07:40.230Z,4.40
2023-01-18T01:10:09.875Z,4.41
2023-01-18T01:12:55.428Z,4.39
2023-01-18T01:15:40.683Z,4.40
2023-01-18T01:18:26.056Z,4.41
2023-01-18T01:21:11.106Z,4.40
2023-01-18T01:23:56.297Z,4.41
2023-01-18T01:26:23.040Z,4.41
2023-01-18T01:28:50.280Z,4.41
2023-01-18T01:31:17.338Z,4.41
2023-01-18T01:33:45.054Z,4.42
2023-01-18T01:36:12.457Z,4.41
2023-01-18T01:38:39.592Z,4.41
2023-01-18T01:41:11.054Z,4.42
2023-01-18T01:43:42.034Z,4.42
2023-01-18T01:46:13.052Z,4.42
2023-01-18T01:48:39.759Z,4.42
2023-01-18T01:51:06.824Z,4.42
2023-01-18T01:53:33.499Z,4.42
2023-01-18T01:56:00.205Z,4.42
2023-01-18T01:58:27.283Z,4.41
2023-01-18T02:00:54.486Z,4.42
2023-01-18T02:03:21.387Z,4.42
2023-01-18T02:05:49.394Z,4.42
2023-01-18T02:08:22.420Z,4.42
2023-01-18T02:10:49.737Z,4.42
2023-01-18T02:13:16.427Z,4.42
2023-01-18T02:16:21.978Z,4.42
2023-01-18T02:18:48.764Z,4.43
2023-01-18T02:21:30.342Z,4.43
2023-01-18T02:24:02.039Z,4.43
2023-01-18T02:26:47.544Z,4.42
2023-01-18T02:29:17.561Z,4.43
2023-01-18T02:32:08.564Z,4.42
2023-01-18T02:34:35.261Z,4.42
2023-01-18T02:37:04.631Z,4.42
2023-01-18T02:39:38.610Z,4.42
2023-01-18T02:42:28.478Z,4.43
2023-01-18T02:45:13.884Z,4.42
2023-01-18T02:47:40.607Z,4.42
2023-01-18T02:50:07.535Z,4.42
2023-01-18T02:52:41.190Z,4.41
2023-01-18T02:55:10.116Z,4.42
2023-01-18T02:57:36.811Z,4.42
2023-01-18T03:00:03.986Z,4.40
2023-01-18T03:02:30.684Z,4.40
2023-01-18T03:04:57.461Z,4.41
2023-01-18T03:07:25.696Z,4.40
2023-01-18T03:09:52.428Z,4.41
2023-01-18T03:12:19.080Z,4.40
2023-01-18T03:15:05.167Z,4.40
2023-01-18T03:17:34.218Z,4.41
2023-01-18T03:20:03.994Z,4.40
2023-01-18T03:22:49.858Z,4.41
2023-01-18T03:25:17.568Z,4.41
2023-01-18T03:28:02.869Z,4.40
2023-01-18T03:30:48.492Z,4.41
2023-01-18T03:33:34.229Z,4.40
2023-01-18T03:36:00.995Z,4.41
2023-01-18T03:38:27.657Z,4.42
2023-01-18T03:40:54.415Z,4.40
2023-01-18T03:43:21.203Z,4.42
2023-01-18T03:45:51.258Z,4.40
2023-01-18T03:48:17.997Z,4.41
2023-01-18T03:50:50.927Z,4.42
2023-01-18T03:53:22.363Z,4.42
2023-01-18T03:55:50.480Z,4.42
2023-01-18T03:58:18.856Z,4.42
2023-01-18T04:00:45.624Z,4.43
2023-01-18T04:03:12.464Z,4.43
2023-01-18T04:05:39.245Z,4.42
2023-01-18T04:08:06.143Z,4.42
2023-01-18T04:10:32.896Z,4.42
2023-01-18T04:13:00.066Z,4.42
2023-01-18T04:15:27.022Z,4.42
2023-01-18T04:17:55.933Z,4.43
2023-01-18T04:20:23.026Z,4.43
2023-01-18T04:22:53.041Z,4.42
2023-01-18T04:25:20.049Z,4.42
2023-01-18T04:27:46.805Z,4.42
2023-01-18T04:30:13.549Z,4.43
2023-01-18T04:32:42.840Z,4.43
2023-01-18T04:35:10.178Z,4.42
2023-01-18T04:37:38.435Z,4.43
2023-01-18T04:40:05.961Z,4.42
2023-01-18T04:42:32.772Z,4.43
2023-01-18T04:45:00.168Z,4.43
2023-01-18T04:47:29.194Z,4.43
2023-01-18T04:49:57.673Z,4.44
2023-01-18T04:52:25.347Z,4.43
2023-01-18T04:54:52.099Z,4.42
2023-01-18T04:57:18.861Z,4.41
2023-01-18T04:59:46.159Z,4.42
2023-01-18T05:02:13.106Z,4.43
2023-01-18T05:04:39.856Z,4.42
2023-01-18T05:07:06.647Z,4.43
2023-01-18T05:09:34.317Z,4.43
2023-01-18T05:12:01.049Z,4.43
2023-01-18T05:14:27.787Z,4.43
2023-01-18T05:16:54.491Z,4.43
2023-01-18T05:19:21.219Z,4.42
2023-01-18T05:21:47.924Z,4.42
2023-01-18T05:24:14.696Z,4.43
2023-01-18T05:26:41.361Z,4.43
2023-01-18T05:29:08.152Z,4.43
2023-01-18T05:31:34.849Z,4.44
2023-01-18T05:34:01.592Z,4.44
2023-01-18T05:36:28.354Z,4.43
2023-01-18T05:38:55.273Z,4.43
2023-01-18T05:41:21.954Z,4.42
2023-01-18T05:43:48.717Z,4.44
2023-01-18T05:46:16.133Z,4.43
2023-01-18T05:48:42.936Z,4.44
2023-01-18T05:51:09.974Z,4.44
2023-01-18T05:53:36.701Z,4.43
2023-01-18T05:56:05.261Z,4.43
2023-01-18T05:58:32.064Z,4.44
2023-01-18T06:00:58.898Z,4.44
2023-01-18T06:03:25.646Z,4.43
2023-01-18T06:05:52.394Z,4.42
2023-01-18T06:08:19.180Z,4.43
2023-01-18T06:10:52.360Z,4.43
2023-01-18T06:13:19.096Z,4.43
2023-01-18T06:15:49.486Z,4.41
2023-01-18T06:18:16.559Z,4.43
2023-01-18T06:20:43.362Z,4.43
2023-01-18T06:23:10.092Z,4.43
2023-01-18T06:25:36.788Z,4.44
2023-01-18T06:28:05.244Z,4.43
2023-01-18T06:30:32.310Z,4.43
2023-01-18T06:33:03.706Z,4.43
2023-01-18T06:35:30.618Z,4.42
2023-01-18T06:37:57.320Z,4.42
2023-01-18T06:40:24.060Z,4.41
2023-01-18T06:42:50.840Z,4.39
2023-01-18T06:45:19.696Z,4.41
2023-01-18T06:47:46.388Z,4.41
2023-01-18T06:50:13.302Z,4.42
2023-01-18T06:52:40.029Z,4.40
2023-01-18T06:55:06.918Z,4.41
2023-01-18T06:57:33.638Z,4.40
2023-01-18T07:00:02.037Z,4.38
2023-01-18T07:02:28.802Z,4.39
2023-01-18T07:04:55.567Z,4.39
2023-01-18T07:07:22.615Z,4.40
2023-01-18T07:09:49.339Z,4.40
2023-01-18T07:12:16.010Z,4.38
2023-01-18T07:14:42.734Z,4.39
2023-01-18T07:17:09.507Z,4.40
2023-01-18T07:19:36.443Z,4.40
2023-01-18T07:22:03.156Z,4.39
2023-01-18T07:24:29.949Z,4.41
2023-01-18T07:26:56.677Z,4.41
2023-01-18T07:29:23.540Z,4.41
2023-01-18T07:31:50.237Z,4.42
2023-01-18T07:34:17.019Z,4.41
2023-01-18T07:36:43.913Z,4.41
2023-01-18T07:39:10.694Z,4.42
2023-01-18T07:41:37.625Z,4.43
2023-01-18T07:44:04.634Z,4.43
2023-01-18T07:46:31.447Z,4.43
2023-01-18T07:48:58.394Z,4.43
2023-01-18T07:51:25.137Z,4.42
2023-01-18T07:53:55.005Z,4.42
2023-01-18T07:56:23.022Z,4.43
2023-01-18T07:58:49.768Z,4.43
2023-01-18T08:01:17.645Z,4.43
2023-01-18T08:03:44.460Z,4.44
2023-01-18T08:06:13.585Z,4.45
2023-01-18T08:08:40.308Z,4.44
2023-01-18T08:11:07.297Z,4.45
2023-01-18T08:13:33.965Z,4.45
2023-01-18T08:16:01.083Z,4.46
2023-01-18T08:18:27.902Z,4.46
2023-01-18T08:20:55.310Z,4.47
2023-01-18T08:23:22.260Z,4.46
2023-01-18T08:25:49.763Z,4.47
2023-01-18T08:28:16.582Z,4.47
2023-01-18T08:30:44.243Z,4.46
2023-01-18T08:33:11.285Z,4.44
2023-01-18T08:35:42.180Z,4.44
2023-01-18T08:38:09.793Z,4.45
2023-01-18T08:40:36.493Z,4.45
2023-01-18T08:43:03.297Z,4.46
2023-01-18T08:45:30.113Z,4.47
2023-01-18T08:48:04.712Z,4.48
2023-01-18T08:50:31.706Z,4.47
2023-01-18T08:53:00.306Z,4.48
2023-01-18T08:55:27.405Z,4.49
2023-01-18T08:57:54.117Z,4.51
2023-01-18T09:00:23.470Z,4.51
2023-01-18T09:02:50.742Z,4.53
2023-01-18T09:05:17.513Z,4.55
2023-01-18T09:07:45.567Z,4.55
2023-01-18T09:10:12.508Z,4.56
2023-01-18T09:12:39.309Z,4.57
2023-01-18T09:15:06.412Z,4.57
2023-01-18T09:17:33.771Z,4.59
2023-01-18T09:20:00.464Z,4.58
2023-01-18T09:22:27.237Z,4.58
2023-01-18T09:24:53.990Z,4.59
2023-01-18T09:27:20.784Z,4.60
2023-01-18T09:29:52.370Z,4.61
2023-01-18T09:32:20.126Z,4.62
2023-01-18T09:34:50.853Z,4.62
2023-01-18T09:37:18.142Z,4.63
2023-01-18T09:39:51.846Z,4.64
2023-01-18T09:42:22.951Z,4.66
2023-01-18T09:44:54.231Z,4.67
2023-01-18T09:47:40.243Z,4.67
2023-01-18T09:50:11.010Z,4.67
2023-01-18T09:52:37.809Z,4.67
2023-01-18T09:55:15.755Z,4.65
2023-01-18T09:57:45.992Z,4.67
2023-01-18T10:00:16.559Z,4.68
2023-01-18T10:02:43.356Z,4.69
2023-01-18T10:05:10.158Z,4.70
2023-01-18T10:07:37.329Z,4.71
2023-01-18T10:10:04.312Z,4.71
2023-01-18T10:12:34.199Z,4.72
2023-01-18T10:15:07.876Z,4.74
2023-01-18T10:17:35.891Z,4.75
2023-01-18T10:20:22.018Z,4.74
2023-01-18T10:22:51.554Z,4.76
2023-01-18T10:25:37.923Z,4.77
2023-01-18T10:28:25.441Z,4.78
2023-01-18T10:30:58.303Z,4.78
2023-01-18T10:33:29.112Z,4.78
2023-01-18T10:35:57.251Z,4.80
2023-01-18T10:38:25.003Z,4.80
2023-01-18T10:40:55.332Z,4.78
2023-01-18T10:43:23.643Z,4.79
2023-01-18T10:45:51.208Z,4.80
2023-01-18T10:48:18.001Z,4.81
2023-01-18T10:50:45.863Z,4.82
2023-01-18T10:53:25.313Z,4.86
2023-01-18T10:56:05.578Z,4.86
2023-01-18T10:58:38.375Z,4.87
2023-01-18T11:01:05.300Z,4.89
2023-01-18T11:03:34.537Z,4.91
2023-01-18T11:06:05.916Z,4.91
2023-01-18T11:08:35.967Z,4.93
2023-01-18T11:11:03.959Z,4.92
2023-01-18T11:13:30.777Z,4.94
2023-01-18T11:16:12.980Z,4.96
2023-01-18T11:18:58.416Z,4.95
2023-01-18T11:21:26.557Z,4.96
2023-01-18T11:23:54.387Z,4.96
2023-01-18T11:26:21.760Z,4.98
2023-01-18T11:28:52.530Z,5.00
2023-01-18T11:31:22.286Z,5.03
2023-01-18T11:33:50.488Z,5.04
2023-01-18T11:36:17.477Z,5.03
2023-01-18T11:38:44.642Z,5.04
2023-01-18T11:41:19.225Z,5.07
2023-01-18T11:43:55.007Z,5.10
2023-01-18T11:46:31.821Z,5.10
2023-01-18T11:49:05.516Z,5.10
2023-01-18T11:51:34.076Z,5.11
2023-01-18T11:54:10.359Z,5.12
2023-01-18T11:56:49.791Z,5.12
2023-01-18T11:59:25.256Z,5.14
2023-01-18T12:01:52.249Z,5.15
2023-01-18T12:04:37.907Z,5.17
2023-01-18T12:07:14.039Z,5.17
2023-01-18T12:09:40.963Z,5.18
2023-01-18T12:12:19.304Z,5.17
2023-01-18T12:14:59.601Z,5.15
2023-01-18T12:17:35.616Z,5.16
2023-01-18T12:20:06.129Z,5.17
2023-01-18T12:22:33.008Z,5.17
2023-01-18T12:25:10.989Z,5.16
2023-01-18T12:27:44.368Z,5.17
2023-01-18T12:30:13.809Z,5.18
2023-01-18T12:32:40.886Z,5.18
2023-01-18T12:35:24.171Z,5.18
2023-01-18T12:37:56.161Z,5.18
2023-01-18T12:40:41.829Z,5.19
2023-01-18T12:43:12.961Z,5.18
2023-01-18T12:45:46.971Z,5.17
2023-01-18T12:48:27.816Z,5.14
2023-01-18T12:50:57.697Z,5.16
2023-01-18T12:53:28.944Z,5.12
2023-01-18T12:55:55.838Z,5.11
2023-01-18T12:58:24.481Z,5.12
2023-01-18T13:00:57.368Z,5.13
2023-01-18T13:03:26.398Z,5.14
2023-01-18T13:05:57.193Z,5.15
2023-01-18T13:08:24.116Z,5.17
2023-01-18T13:10:51.026Z,5.17
2023-01-18T13:13:19.811Z,5.18
2023-01-18T13:16:12.870Z,5.19
2023-01-18T13:18:42.549Z,5.18
2023-01-18T13:21:12.392Z,5.18
2023-01-18T13:24:00.110Z,5.19
2023-01-18T13:26:27.899Z,5.20
2023-01-18T13:29:10.298Z,5.22
2023-01-18T13:31:37.301Z,5.21
2023-01-18T13:34:04.050Z,5.21
2023-01-18T13:36:44.704Z,5.22
2023-01-18T13:39:14.041Z,5.24
2023-01-18T13:41:40.945Z,5.23
2023-01-18T13:44:25.753Z,5.24
2023-01-18T13:46:52.535Z,5.24
2023-01-18T13:49:37.631Z,5.25
2023-01-18T13:52:28.360Z,5.26
2023-01-18T13:54:55.159Z,5.28
2023-01-18T13:57:21.858Z,5.29
2023-01-18T13:59:49.703Z,5.32
2023-01-18T14:02:27.886Z,5.32
2023-01-18T14:05:03.864Z,5.34
2023-01-18T14:07:30.737Z,5.35
2023-01-18T14:10:00.021Z,5.35
2023-01-18T14:12:45.662Z,5.37
2023-01-18T14:15:22.800Z,5.37
2023-01-18T14:17:58.306Z,5.39
2023-01-18T14:20:31.919Z,5.40
2023-01-18T14:23:06.190Z,5.41
2023-01-18T14:25:50.716Z,5.41
2023-01-18T14:28:18.019Z,5.42
2023-01-18T14:30:45.142Z,5.42
2023-01-18T14:33:24.264Z,5.43
2023-01-18T14:35:52.260Z,5.43
2023-01-18T14:38:19.162Z,5.43
2023-01-18T14:40:55.689Z,5.44
2023-01-18T14:43:25.420Z,5.42
2023-01-18T14:46:00.393Z,5.42
2023-01-18T14:48:27.485Z,5.42
2023-01-18T14:50:54.672Z,5.43
2023-01-18T14:53:45.116Z,5.43
2023-01-18T14:56:14.696Z,5.41
2023-01-18T14:58:51.036Z,5.40
2023-01-18T15:01:28.840Z,5.39
2023-01-18T15:03:56.255Z,5.38
2023-01-18T15:06:43.799Z,5.36
2023-01-18T15:09:10.808Z,5.34
2023-01-18T15:11:37.886Z,5.35
2023-01-18T15:14:07.045Z,5.33
2023-01-18T15:16:33.847Z,5.32
2023-01-18T15:19:02.025Z,5.31
2023-01-18T15:21:29.988Z,5.30
2023-01-18T15:24:04.797Z,5.30
2023-01-18T15:26:35.386Z,5.28
2023-01-18T15:29:09.878Z,5.27
2023-01-18T15:31:39.224Z,5.26
2023-01-18T15:34:06.595Z,5.26
2023-01-18T15:36:33.470Z,5.24
2023-01-18T15:39:00.259Z,5.24
2023-01-18T15:41:30.521Z,5.23
2023-01-18T15:43:59.852Z,5.22
2023-01-18T15:46:29.177Z,5.21
2023-01-18T15:52:00.425Z,5.19
2023-01-18T15:54:27.662Z,5.18
2023-01-18T15:56:58.037Z,5.18
2023-01-18T15:59:45.055Z,5.17
2023-01-18T16:02:46.041Z,5.16
2023-01-18T16:05:22.828Z,5.14
2023-01-18T16:07:53.129Z,5.14
2023-01-18T16:10:39.505Z,5.13
2023-01-18T16:13:25.023Z,5.12
2023-01-18T16:16:08.234Z,5.11
2023-01-18T16:18:35.810Z,5.10
2023-01-18T16:21:31.000Z,5.10
2023-01-18T16:23:57.921Z,5.09
2023-01-18T16:26:26.911Z,5.07
2023-01-18T16:28:53.798Z,5.07
2023-01-18T16:31:21.076Z,5.06
2023-01-18T16:33:47.794Z,5.04
2023-01-18T16:36:16.077Z,5.03
2023-01-18T16:38:42.920Z,5.01
2023-01-18T16:41:10.220Z,5.01
2023-01-18T16:43:37.008Z,5.01
2023-01-18T16:46:04.755Z,5.00
2023-01-18T16:48:33.698Z,4.98
2023-01-18T16:51:01.502Z,4.99
2023-01-18T16:53:28.819Z,4.99
2023-01-18T16:55:57.163Z,4.97
2023-01-18T16:58:24.359Z,4.95
2023-01-18T17:00:51.622Z,4.95
2023-01-18T17:03:28.152Z,4.92
2023-01-18T17:05:55.606Z,4.92
2023-01-18T17:08:22.449Z,4.92
2023-01-18T17:10:52.964Z,4.90
2023-01-18T17:13:20.540Z,4.88
2023-01-18T17:15:47.483Z,4.87
2023-01-18T17:18:23.605Z,4.83
2023-01-18T17:20:51.134Z,4.83
2023-01-18T17:23:19.089Z,4.82
2023-01-18T17:25:46.987Z,4.81
2023-01-18T17:28:17.941Z,4.77
2023-01-18T17:30:45.650Z,4.76
2023-01-18T17:33:17.451Z,4.74
2023-01-18T17:35:44.339Z,4.74
2023-01-18T17:38:17.235Z,4.73
2023-01-18T17:40:49.671Z,4.71
2023-01-18T17:43:32.977Z,4.72
2023-01-18T17:46:04.771Z,4.71
2023-01-18T17:48:31.743Z,4.71
2023-01-18T17:50:58.886Z,4.70
2023-01-18T17:53:26.436Z,4.69
2023-01-18T17:55:53.618Z,4.68
2023-01-18T17:58:20.645Z,4.68
2023-01-18T18:00:47.462Z,4.69
2023-01-18T18:03:14.438Z,4.67
2023-01-18T18:05:41.542Z,4.67
2023-01-18T18:08:09.113Z,4.66
2023-01-18T18:10:36.015Z,4.66
2023-01-18T18:13:05.514Z,4.65
2023-01-18T18:15:32.383Z,4.67
2023-01-18T18:17:59.166Z,4.66
2023-01-18T18:20:25.981Z,4.66
2023-01-18T18:22:54.643Z,4.66
2023-01-18T18:25:21.408Z,4.66
2023-01-18T18:27:48.255Z,4.65
2023-01-18T18:30:15.522Z,4.65
2023-01-18T18:33:00.827Z,4.66
2023-01-18T18:35:28.875Z,4.65
2023-01-18T18:37:57.499Z,4.64
2023-01-18T18:40:24.641Z,4.65
2023-01-18T18:43:06.913Z,4.63
2023-01-18T18:45:36.303Z,4.64
2023-01-18T18:48:05.323Z,4.63
2023-01-18T18:50:33.105Z,4.63
2023-01-18T18:53:00.182Z,4.62
2023-01-18T18:55:27.471Z,4.63
2023-01-18T18:57:54.293Z,4.61
2023-01-18T19:00:25.369Z,4.61
2023-01-18T19:02:59.095Z,4.61
2023-01-18T19:05:36.700Z,4.59
2023-01-18T19:08:04.458Z,4.59
2023-01-18T19:10:31.238Z,4.57
2023-01-18T19:12:58.550Z,4.57
2023-01-18T19:15:25.486Z,4.57
2023-01-18T19:17:52.410Z,4.55
2023-01-18T19:20:19.974Z,4.55
2023-01-18T19:22:47.305Z,4.55
2023-01-18T19:25:14.016Z,4.54
2023-01-18T19:27:40.824Z,4.54
2023-01-18T19:30:12.862Z,4.53
2023-01-18T19:32:39.905Z,4.53
2023-01-18T19:35:06.913Z,4.52
2023-01-18T19:37:33.625Z,4.51
2023-01-18T19:40:00.504Z,4.50
2023-01-18T19:42:27.266Z,4.51
2023-01-18T19:44:58.773Z,4.50
2023-01-18T19:47:26.084Z,4.50
2023-01-18T19:49:54.917Z,4.49
2023-01-18T19:52:21.724Z,4.49
2023-01-18T19:54:48.471Z,4.48
2023-01-18T19:57:15.246Z,4.50
2023-01-18T19:59:42.006Z,4.50
2023-01-18T20:02:09.963Z,4.50
2023-01-18T20:04:37.915Z,4.49
2023-01-18T20:07:04.771Z,4.49
2023-01-18T20:09:42.747Z,4.49
2023-01-18T20:12:12.578Z,4.49
2023-01-18T20:14:41.889Z,4.49
2023-01-18T20:17:11.985Z,4.49
2023-01-18T20:19:38.775Z,4.49
2023-01-18T20:22:05.558Z,4.49
2023-01-18T20:24:32.351Z,4.49
2023-01-18T20:27:14.960Z,4.48
2023-01-18T20:29:42.756Z,4.48
2023-01-18T20:32:16.111Z,4.48
2023-01-18T20:34:47.550Z,4.48
2023-01-18T20:37:14.663Z,4.47
2023-01-18T20:39:41.436Z,4.48
2023-01-18T20:42:08.448Z,4.47
2023-01-18T20:44:35.216Z,4.47
2023-01-18T20:47:02.064Z,4.48
2023-01-18T20:49:43.982Z,4.47
2023-01-18T20:52:10.966Z,4.46
2023-01-18T20:54:37.958Z,4.46
2023-01-18T20:57:05.343Z,4.45
2023-01-18T20:59:32.195Z,4.44
2023-01-18T21:01:59.170Z,4.44
2023-01-18T21:04:26.137Z,4.43
2023-01-18T21:06:52.987Z,4.42
2023-01-18T21:09:19.887Z,4.41
2023-01-18T21:11:46.585Z,4.39
2023-01-18T21:14:13.362Z,4.40
2023-01-18T21:16:40.452Z,4.38
2023-01-18T21:19:07.283Z,4.37
2023-01-18T21:21:34.060Z,4.35
2023-01-18T21:24:01.028Z,4.36
2023-01-18T21:26:27.829Z,4.35
2023-01-18T21:28:54.797Z,4.34
2023-01-18T21:31:21.648Z,4.34
2023-01-18T21:33:48.392Z,4.32
2023-01-18T21:36:16.096Z,4.32
2023-01-18T21:38:42.867Z,4.31
2023-01-18T21:41:28.820Z,4.30
2023-01-18T21:44:14.230Z,4.29
2023-01-18T21:46:51.949Z,4.29
2023-01-18T21:50:16.116Z,4.29
2023-01-18T21:52:42.853Z,4.28
2023-01-18T21:55:09.736Z,4.28
2023-01-18T21:57:36.814Z,4.27
2023-01-18T22:00:04.551Z,4.26
2023-01-18T22:02:33.907Z,4.26
2023-01-18T22:05:00.868Z,4.26
2023-01-18T22:07:28.239Z,4.24
2023-01-18T22:10:04.623Z,4.24
2023-01-18T22:12:33.506Z,4.24
2023-01-18T22:15:02.243Z,4.23
2023-01-18T22:17:29.089Z,4.23
2023-01-18T22:19:55.816Z,4.22
2023-01-18T22:22:24.045Z,4.21
2023-01-18T22:24:50.865Z,4.21
2023-01-18T22:27:17.662Z,4.21
2023-01-18T22:29:44.396Z,4.21
2023-01-18T22:32:11.107Z,4.19
2023-01-18T22:34:37.805Z,4.20
2023-01-18T22:37:05.915Z,4.19
2023-01-18T22:39:33.109Z,4.19
2023-01-18T22:41:59.828Z,4.18
2023-01-18T22:44:26.632Z,4.20
2023-01-18T22:46:53.337Z,4.19
2023-01-18T22:49:20.014Z,4.19
2023-01-18T22:51:46.765Z,4.18
2023-01-18T22:54:13.484Z,4.18
2023-01-18T22:56:40.191Z,4.17
2023-01-18T22:59:07.923Z,4.16
2023-01-18T23:01:34.718Z,4.16
2023-01-18T23:04:02.099Z,4.16
2023-01-18T23:06:29.077Z,4.16
2023-01-18T23:08:56.025Z,4.15
2023-01-18T23:11:26.343Z,4.14
2023-01-18T23:14:12.836Z,4.14
2023-01-18T23:16:58.670Z,4.14
2023-01-18T23:19:25.475Z,4.13
2023-01-18T23:21:52.441Z,4.12
2023-01-18T23:24:19.443Z,4.11
2023-01-18T23:26:46.343Z,4.11
2023-01-18T23:29:13.128Z,4.10
2023-01-18T23:31:39.803Z,4.10
2023-01-18T23:34:06.531Z,4.10
2023-01-18T23:36:33.256Z,4.09
2023-01-18T23:39:18.629Z,4.08
2023-01-18T23:42:03.787Z,4.08
2023-01-18T23:44:48.843Z,4.07
2023-01-18T23:47:34.019Z,4.06
2023-01-18T23:50:19.332Z,4.06
2023-01-18T23:53:04.737Z,4.05
2023-01-18T23:55:31.502Z,4.06
2023-01-18T23:57:59.721Z,4.04
